Balgoze, Turkey

5:02 AM +03 on June 24, 2017 (GMT +0300)
Merzifon Air Base | | Change Station

Elev 1755 ft 40.85 °N, 35.58 °E | Updated 12 minutes ago

Clear
Clear
54 °F
Feels Like 54 °F
N
0
Wind Variable Wind from North

Today
High -- | Low -- °F
--% Chance of Precip.
Yesterday
High -- | Low -- °F
Precip. -- in
Pressure 29.98 in
Visibility -9999.0 miles
Clouds
Dew Point 50 °F
Humidity 88%
Rainfall 0.00 in
Snow Depth Not available.
5:08 AM 8:13 PM
Waning Crescent, 0% visible
METAR LTAP 240150Z 00000KT CAVOK 12/10 Q1015 NOSIG RMK RWY23 34003KT
Pressure 29.98 in
Visibility -9999.0 miles
Clouds
Dew Point 50 °F
Humidity 88%
Rainfall 0.00 in
Snow Depth Not available.
5:08 AM 8:13 PM
Waning Crescent, 0% visible
METAR LTAP 240150Z 00000KT CAVOK 12/10 Q1015 NOSIG RMK RWY23 34003KT

Get Severe Weather Alerts

Thanks for signing up!

Be on the lookout for a verification email in your inbox.

You'll start receiving the daily forecast at 6 AM.

×

10-Day Weather Forecast

×

Almanac

Astronomy

Jun. 24, 2017 Rise Set
Actual Time
Civil Twilight
Nautical Twilight
Astronomical Twilight
Moon
Length of Visible Light
Length of Day
Tomorrow will be .
, % of the Moon is Illuminated

Today's Extremes

Country Highs Country Lows

Community

WunderPhotos

Category 6

Welcome to Category 6. This is the collective home for Weather Underground's featured writeups by Dr. Jeff Masters (right), Bob Henson (left), Chris Burt, and other regular contributors.

Nearby

Air Quality

  Air Quality AQ Index Pollutant
Not available.

Snow Depth

Station Depth Elevation

Earthquake Activity

City Distance Mag. Time & Date
Minimum magnitude displayed is 2.5.

Coastal Water Temperatures

Place Temperature

Stations

Nearby Weather Stations

Station Location Temp. Windchill Dew Point Humidity Wind Precip. Elev Updated Type